sensor_id;sensor_type;location;lat;lon;timestamp;P1;P2;P0
65360;PMS5003;51958;55.018;73.536;2023-10-08T00:00:39;7.00;5.33;2.00
65360;PMS5003;51958;55.018;73.536;2023-10-08T00:03:51;5.67;5.67;2.00
65360;PMS5003;51958;55.018;73.536;2023-10-08T00:06:54;7.00;6.67;2.00
65360;PMS5003;51958;55.018;73.536;2023-10-08T00:09:55;6.00;6.00;2.33
65360;PMS5003;51958;55.018;73.536;2023-10-08T00:12:56;8.00;7.00;3.00
65360;PMS5003;51958;55.018;73.536;2023-10-08T00:15:58;8.00;6.00;3.00
65360;PMS5003;51958;55.018;73.536;2023-10-08T00:18:59;7.33;6.33;2.00
65360;PMS5003;51958;55.018;73.536;2023-10-08T00:22:11;6.33;6.00;2.00
65360;PMS5003;51958;55.018;73.536;2023-10-08T00:25:14;5.00;5.00;2.00
65360;PMS5003;51958;55.018;73.536;2023-10-08T00:28:16;6.00;6.00;3.00
65360;PMS5003;51958;55.018;73.536;2023-10-08T00:31:18;5.33;5.33;2.00
65360;PMS5003;51958;55.018;73.536;2023-10-08T00:34:19;6.00;5.00;3.00
65360;PMS5003;51958;55.018;73.536;2023-10-08T00:37:20;6.00;6.00;2.00
65360;PMS5003;51958;55.018;73.536;2023-10-08T00:40:24;4.33;4.00;2.00
65360;PMS5003;51958;55.018;73.536;2023-10-08T00:43:28;6.00;6.00;2.00
65360;PMS5003;51958;55.018;73.536;2023-10-08T00:46:31;4.00;3.00;0.00
65360;PMS5003;51958;55.018;73.536;2023-10-08T00:49:40;4.00;3.00;0.00
65360;PMS5003;51958;55.018;73.536;2023-10-08T00:52:43;5.00;4.67;0.67
65360;PMS5003;51958;55.018;73.536;2023-10-08T00:55:58;3.00;3.00;0.00
65360;PMS5003;51958;55.018;73.536;2023-10-08T00:59:07;5.00;5.00;0.00
65360;PMS5003;51958;55.018;73.536;2023-10-08T01:02:09;5.00;5.00;1.00
65360;PMS5003;51958;55.018;73.536;2023-10-08T01:05:16;6.00;6.00;2.00
65360;PMS5003;51958;55.018;73.536;2023-10-08T01:08:25;5.33;4.00;2.00
65360;PMS5003;51958;55.018;73.536;2023-10-08T01:11:46;6.00;5.00;2.00
65360;PMS5003;51958;55.018;73.536;2023-10-08T01:15:09;5.00;4.00;1.00
65360;PMS5003;51958;55.018;73.536;2023-10-08T01:18:27;7.67;7.00;1.00
65360;PMS5003;51958;55.018;73.536;2023-10-08T01:21:33;10.67;9.33;2.00
65360;PMS5003;51958;55.018;73.536;2023-10-08T01:24:35;11.50;10.00;3.00
65360;PMS5003;51958;55.018;73.536;2023-10-08T01:27:36;12.33;10.00;4.00
65360;PMS5003;51958;55.018;73.536;2023-10-08T01:30:38;12.00;9.33;4.00
65360;PMS5003;51958;55.018;73.536;2023-10-08T01:33:42;11.00;7.33;4.00
65360;PMS5003;51958;55.018;73.536;2023-10-08T01:36:52;12.00;9.00;4.00
65360;PMS5003;51958;55.018;73.536;2023-10-08T01:39:53;9.67;6.67;3.00
65360;PMS5003;51958;55.018;73.536;2023-10-08T01:42:54;9.67;5.33;1.67
65360;PMS5003;51958;55.018;73.536;2023-10-08T01:45:55;7.00;6.67;3.00
65360;PMS5003;51958;55.018;73.536;2023-10-08T01:48:56;8.00;5.00;3.00
65360;PMS5003;51958;55.018;73.536;2023-10-08T01:52:10;5.00;4.00;3.00
65360;PMS5003;51958;55.018;73.536;2023-10-08T01:55:19;5.00;4.33;2.00
65360;PMS5003;51958;55.018;73.536;2023-10-08T01:58:21;6.00;5.00;2.00
65360;PMS5003;51958;55.018;73.536;2023-10-08T02:01:23;3.33;3.00;2.00
65360;PMS5003;51958;55.018;73.536;2023-10-08T02:04:24;8.33;5.67;2.33
65360;PMS5003;51958;55.018;73.536;2023-10-08T02:07:25;8.67;7.00;3.67
65360;PMS5003;51958;55.018;73.536;2023-10-08T02:10:26;6.00;6.00;3.00
65360;PMS5003;51958;55.018;73.536;2023-10-08T02:13:29;17.67;17.00;10.67
65360;PMS5003;51958;55.018;73.536;2023-10-08T02:16:35;29.67;27.00;17.00
65360;PMS5003;51958;55.018;73.536;2023-10-08T02:19:38;41.33;33.00;20.33
65360;PMS5003;51958;55.018;73.536;2023-10-08T02:22:39;43.00;33.00;21.00
65360;PMS5003;51958;55.018;73.536;2023-10-08T02:25:40;37.33;30.00;18.00
65360;PMS5003;51958;55.018;73.536;2023-10-08T02:28:42;27.00;26.00;17.00
65360;PMS5003;51958;55.018;73.536;2023-10-08T02:31:43;19.33;19.00;10.33
65360;PMS5003;51958;55.018;73.536;2023-10-08T02:34:44;17.00;16.00;6.00
65360;PMS5003;51958;55.018;73.536;2023-10-08T02:37:45;13.75;11.50;4.00
65360;PMS5003;51958;55.018;73.536;2023-10-08T02:40:46;14.00;9.00;4.67
65360;PMS5003;51958;55.018;73.536;2023-10-08T02:43:50;14.50;10.50;5.50
65360;PMS5003;51958;55.018;73.536;2023-10-08T02:46:51;12.00;10.00;5.00
65360;PMS5003;51958;55.018;73.536;2023-10-08T02:49:52;14.00;12.00;5.00
65360;PMS5003;51958;55.018;73.536;2023-10-08T02:52:53;13.50;13.25;6.50
65360;PMS5003;51958;55.018;73.536;2023-10-08T02:55:54;16.00;16.00;6.33
65360;PMS5003;51958;55.018;73.536;2023-10-08T02:58:55;16.00;15.00;6.00
65360;PMS5003;51958;55.018;73.536;2023-10-08T03:01:56;14.50;13.50;5.50
65360;PMS5003;51958;55.018;73.536;2023-10-08T03:04:57;13.00;11.00;5.00
65360;PMS5003;51958;55.018;73.536;2023-10-08T03:08:01;12.00;11.00;5.00
65360;PMS5003;51958;55.018;73.536;2023-10-08T03:11:02;30.25;25.75;15.00
65360;PMS5003;51958;55.018;73.536;2023-10-08T03:14:05;26.75;25.00;12.50
65360;PMS5003;51958;55.018;73.536;2023-10-08T03:17:06;18.67;18.00;6.67
65360;PMS5003;51958;55.018;73.536;2023-10-08T03:20:08;16.00;16.00;5.50
65360;PMS5003;51958;55.018;73.536;2023-10-08T03:23:28;20.50;18.25;11.00
65360;PMS5003;51958;55.018;73.536;2023-10-08T03:26:34;21.25;21.00;12.25
65360;PMS5003;51958;55.018;73.536;2023-10-08T03:29:36;19.00;19.00;11.00
65360;PMS5003;51958;55.018;73.536;2023-10-08T03:32:46;25.75;24.25;14.50
65360;PMS5003;51958;55.018;73.536;2023-10-08T03:36:01;33.00;29.50;19.25
65360;PMS5003;51958;55.018;73.536;2023-10-08T03:39:10;31.00;29.00;18.50
65360;PMS5003;51958;55.018;73.536;2023-10-08T03:42:15;25.50;21.75;11.00
65360;PMS5003;51958;55.018;73.536;2023-10-08T03:45:21;37.00;29.00;16.00
65360;PMS5003;51958;55.018;73.536;2023-10-08T03:48:41;27.33;24.00;16.33
65360;PMS5003;51958;55.018;73.536;2023-10-08T03:51:45;30.25;24.75;16.00
65360;PMS5003;51958;55.018;73.536;2023-10-08T03:54:47;32.00;28.50;16.00
65360;PMS5003;51958;55.018;73.536;2023-10-08T03:58:09;24.00;21.00;8.33
65360;PMS5003;51958;55.018;73.536;2023-10-08T04:01:34;14.75;13.75;4.00
65360;PMS5003;51958;55.018;73.536;2023-10-08T04:04:35;14.00;11.25;4.75
65360;PMS5003;51958;55.018;73.536;2023-10-08T04:07:52;77.00;66.33;41.00
65360;PMS5003;51958;55.018;73.536;2023-10-08T04:11:00;71.00;57.50;36.75
65360;PMS5003;51958;55.018;73.536;2023-10-08T04:14:09;83.25;72.75;48.50
65360;PMS5003;51958;55.018;73.536;2023-10-08T04:17:10;82.67;73.33;49.00
65360;PMS5003;51958;55.018;73.536;2023-10-08T04:20:11;76.75;65.50;42.75
65360;PMS5003;51958;55.018;73.536;2023-10-08T04:23:32;54.00;42.50;27.50
65360;PMS5003;51958;55.018;73.536;2023-10-08T04:26:36;39.00;32.67;21.67
65360;PMS5003;51958;55.018;73.536;2023-10-08T04:29:40;28.25;26.00;15.00
65360;PMS5003;51958;55.018;73.536;2023-10-08T04:32:43;61.00;47.75;30.25
65360;PMS5003;51958;55.018;73.536;2023-10-08T04:35:44;58.50;46.25;29.25
65360;PMS5003;51958;55.018;73.536;2023-10-08T04:38:49;48.00;39.00;25.00
65360;PMS5003;51958;55.018;73.536;2023-10-08T04:42:03;33.00;29.75;18.25
65360;PMS5003;51958;55.018;73.536;2023-10-08T04:45:15;21.25;19.25;9.00
65360;PMS5003;51958;55.018;73.536;2023-10-08T04:48:16;21.00;17.00;7.00
65360;PMS5003;51958;55.018;73.536;2023-10-08T04:51:21;20.00;16.00;7.00
65360;PMS5003;51958;55.018;73.536;2023-10-08T04:54:27;20.00;18.25;7.00
65360;PMS5003;51958;55.018;73.536;2023-10-08T04:57:31;20.00;18.00;7.00
65360;PMS5003;51958;55.018;73.536;2023-10-08T05:00:34;21.50;18.50;8.50
65360;PMS5003;51958;55.018;73.536;2023-10-08T05:03:48;18.00;17.00;7.00
65360;PMS5003;51958;55.018;73.536;2023-10-08T05:07:08;16.00;16.00;6.00
65360;PMS5003;51958;55.018;73.536;2023-10-08T05:10:22;15.00;15.00;7.00
65360;PMS5003;51958;55.018;73.536;2023-10-08T05:13:23;15.25;14.75;7.25
65360;PMS5003;51958;55.018;73.536;2023-10-08T05:16:33;17.00;15.50;7.00
65360;PMS5003;51958;55.018;73.536;2023-10-08T05:19:45;18.00;15.00;6.00
65360;PMS5003;51958;55.018;73.536;2023-10-08T05:22:53;17.00;14.00;5.00
65360;PMS5003;51958;55.018;73.536;2023-10-08T05:26:07;15.00;12.00;5.00
65360;PMS5003;51958;55.018;73.536;2023-10-08T05:29:08;16.75;13.00;4.25
65360;PMS5003;51958;55.018;73.536;2023-10-08T05:32:28;14.00;10.75;5.50
65360;PMS5003;51958;55.018;73.536;2023-10-08T05:35:45;14.00;11.50;5.00
65360;PMS5003;51958;55.018;73.536;2023-10-08T05:38:46;12.00;10.00;5.33
65360;PMS5003;51958;55.018;73.536;2023-10-08T05:42:01;15.25;13.00;6.00
65360;PMS5003;51958;55.018;73.536;2023-10-08T05:45:16;14.00;11.00;6.00
65360;PMS5003;51958;55.018;73.536;2023-10-08T05:48:30;12.00;10.00;5.67
65360;PMS5003;51958;55.018;73.536;2023-10-08T05:51:45;15.00;12.75;6.00
65360;PMS5003;51958;55.018;73.536;2023-10-08T05:54:50;16.00;13.75;6.00
65360;PMS5003;51958;55.018;73.536;2023-10-08T05:58:09;18.33;14.33;6.67
65360;PMS5003;51958;55.018;73.536;2023-10-08T06:01:19;18.00;17.00;7.00
65360;PMS5003;51958;55.018;73.536;2023-10-08T06:04:42;15.50;15.00;7.00
65360;PMS5003;51958;55.018;73.536;2023-10-08T06:07:54;18.67;17.00;7.33
65360;PMS5003;51958;55.018;73.536;2023-10-08T06:10:56;20.00;16.50;6.50
65360;PMS5003;51958;55.018;73.536;2023-10-08T06:14:02;17.00;14.00;5.25
65360;PMS5003;51958;55.018;73.536;2023-10-08T06:17:11;18.25;14.00;6.00
65360;PMS5003;51958;55.018;73.536;2023-10-08T06:20:36;16.33;14.33;6.67
65360;PMS5003;51958;55.018;73.536;2023-10-08T06:23:40;15.25;14.25;5.00
65360;PMS5003;51958;55.018;73.536;2023-10-08T06:26:42;11.00;10.00;4.50
65360;PMS5003;51958;55.018;73.536;2023-10-08T06:29:43;11.00;9.75;4.75
65360;PMS5003;51958;55.018;73.536;2023-10-08T06:32:45;9.75;9.00;4.00
65360;PMS5003;51958;55.018;73.536;2023-10-08T06:35:47;9.75;9.25;4.00
65360;PMS5003;51958;55.018;73.536;2023-10-08T06:39:03;10.00;8.00;4.00
65360;PMS5003;51958;55.018;73.536;2023-10-08T06:42:07;10.00;6.25;2.50
65360;PMS5003;51958;55.018;73.536;2023-10-08T06:45:11;12.50;9.00;3.00
65360;PMS5003;51958;55.018;73.536;2023-10-08T06:48:15;9.75;8.50;3.75
65360;PMS5003;51958;55.018;73.536;2023-10-08T06:51:20;14.00;11.25;6.00
65360;PMS5003;51958;55.018;73.536;2023-10-08T06:54:22;17.75;11.00;4.00
65360;PMS5003;51958;55.018;73.536;2023-10-08T06:57:23;14.00;9.00;3.75
65360;PMS5003;51958;55.018;73.536;2023-10-08T07:00:27;15.00;10.00;3.00
65360;PMS5003;51958;55.018;73.536;2023-10-08T07:03:54;13.00;9.25;3.00
65360;PMS5003;51958;55.018;73.536;2023-10-08T07:07:04;11.00;9.00;4.00
65360;PMS5003;51958;55.018;73.536;2023-10-08T07:10:10;18.00;11.33;5.00
65360;PMS5003;51958;55.018;73.536;2023-10-08T07:13:16;16.00;14.00;6.00
65360;PMS5003;51958;55.018;73.536;2023-10-08T07:16:18;15.00;12.50;5.00
65360;PMS5003;51958;55.018;73.536;2023-10-08T07:19:21;20.33;18.00;10.00
65360;PMS5003;51958;55.018;73.536;2023-10-08T07:22:29;23.00;20.25;11.00
65360;PMS5003;51958;55.018;73.536;2023-10-08T07:25:32;19.00;17.00;9.00
65360;PMS5003;51958;55.018;73.536;2023-10-08T07:28:38;19.00;16.00;7.00
65360;PMS5003;51958;55.018;73.536;2023-10-08T07:31:42;20.00;16.00;6.00
65360;PMS5003;51958;55.018;73.536;2023-10-08T07:34:48;17.25;14.00;5.00
65360;PMS5003;51958;55.018;73.536;2023-10-08T07:37:58;13.75;9.50;4.00
65360;PMS5003;51958;55.018;73.536;2023-10-08T07:40:59;11.00;9.33;5.00
65360;PMS5003;51958;55.018;73.536;2023-10-08T07:44:01;14.00;13.00;5.50
65360;PMS5003;51958;55.018;73.536;2023-10-08T07:47:06;10.00;10.00;4.00
65360;PMS5003;51958;55.018;73.536;2023-10-08T07:50:16;14.25;9.50;4.00
65360;PMS5003;51958;55.018;73.536;2023-10-08T07:53:17;14.50;9.50;4.75
65360;PMS5003;51958;55.018;73.536;2023-10-08T07:56:18;14.00;8.50;5.00
65360;PMS5003;51958;55.018;73.536;2023-10-08T07:59:20;14.00;11.00;6.00
65360;PMS5003;51958;55.018;73.536;2023-10-08T08:02:22;16.00;10.25;5.75
65360;PMS5003;51958;55.018;73.536;2023-10-08T08:05:27;11.00;9.00;4.00
65360;PMS5003;51958;55.018;73.536;2023-10-08T08:08:28;12.50;11.00;4.00
65360;PMS5003;51958;55.018;73.536;2023-10-08T08:11:30;15.00;12.75;5.00
65360;PMS5003;51958;55.018;73.536;2023-10-08T08:14:31;14.00;11.50;4.50
65360;PMS5003;51958;55.018;73.536;2023-10-08T08:17:32;16.50;13.75;6.00
65360;PMS5003;51958;55.018;73.536;2023-10-08T08:20:37;18.33;15.00;7.00
65360;PMS5003;51958;55.018;73.536;2023-10-08T08:23:45;15.00;12.50;4.50
65360;PMS5003;51958;55.018;73.536;2023-10-08T08:26:50;15.00;11.00;4.75
65360;PMS5003;51958;55.018;73.536;2023-10-08T08:30:02;15.33;11.33;4.00
65360;PMS5003;51958;55.018;73.536;2023-10-08T08:33:16;16.25;13.00;7.00
65360;PMS5003;51958;55.018;73.536;2023-10-08T08:36:23;19.00;15.50;7.00
65360;PMS5003;51958;55.018;73.536;2023-10-08T08:39:24;16.00;13.00;7.00
65360;PMS5003;51958;55.018;73.536;2023-10-08T08:42:36;17.50;13.25;6.75
65360;PMS5003;51958;55.018;73.536;2023-10-08T08:45:37;17.50;13.50;7.00
65360;PMS5003;51958;55.018;73.536;2023-10-08T08:48:42;17.25;14.00;6.00
65360;PMS5003;51958;55.018;73.536;2023-10-08T08:51:43;17.00;12.33;6.00
65360;PMS5003;51958;55.018;73.536;2023-10-08T08:54:49;18.00;13.00;6.00
65360;PMS5003;51958;55.018;73.536;2023-10-08T08:57:50;16.00;14.00;5.00
65360;PMS5003;51958;55.018;73.536;2023-10-08T09:00:53;18.00;13.00;5.00
65360;PMS5003;51958;55.018;73.536;2023-10-08T09:04:00;17.50;14.00;7.00
65360;PMS5003;51958;55.018;73.536;2023-10-08T09:07:05;19.00;14.00;8.00
65360;PMS5003;51958;55.018;73.536;2023-10-08T09:10:07;17.00;14.00;7.00
65360;PMS5003;51958;55.018;73.536;2023-10-08T09:13:13;14.25;12.00;5.00
65360;PMS5003;51958;55.018;73.536;2023-10-08T09:16:14;14.00;11.00;5.00
65360;PMS5003;51958;55.018;73.536;2023-10-08T09:19:18;10.50;9.50;4.00
65360;PMS5003;51958;55.018;73.536;2023-10-08T09:22:19;14.50;12.50;6.00
65360;PMS5003;51958;55.018;73.536;2023-10-08T09:25:20;17.50;15.75;6.00
65360;PMS5003;51958;55.018;73.536;2023-10-08T09:28:26;16.00;15.00;5.25
65360;PMS5003;51958;55.018;73.536;2023-10-08T09:31:28;14.67;11.00;4.00
65360;PMS5003;51958;55.018;73.536;2023-10-08T09:34:36;13.75;10.00;5.00
65360;PMS5003;51958;55.018;73.536;2023-10-08T09:37:37;12.00;8.50;4.00
65360;PMS5003;51958;55.018;73.536;2023-10-08T09:40:40;11.00;8.25;4.00
65360;PMS5003;51958;55.018;73.536;2023-10-08T09:43:42;11.00;8.50;4.00
65360;PMS5003;51958;55.018;73.536;2023-10-08T09:46:43;9.25;8.25;3.00
65360;PMS5003;51958;55.018;73.536;2023-10-08T09:49:53;12.50;11.50;5.00
65360;PMS5003;51958;55.018;73.536;2023-10-08T09:53:01;15.75;13.50;6.00
65360;PMS5003;51958;55.018;73.536;2023-10-08T09:56:12;16.00;13.00;5.00
65360;PMS5003;51958;55.018;73.536;2023-10-08T09:59:14;13.00;10.25;5.00
65360;PMS5003;51958;55.018;73.536;2023-10-08T10:02:16;12.00;10.00;5.00
65360;PMS5003;51958;55.018;73.536;2023-10-08T10:05:19;13.25;13.25;5.00
65360;PMS5003;51958;55.018;73.536;2023-10-08T10:08:22;18.75;15.00;8.00
65360;PMS5003;51958;55.018;73.536;2023-10-08T10:11:26;15.00;13.00;4.00
65360;PMS5003;51958;55.018;73.536;2023-10-08T10:14:33;15.00;13.00;5.00
65360;PMS5003;51958;55.018;73.536;2023-10-08T10:17:41;12.25;11.00;5.00
65360;PMS5003;51958;55.018;73.536;2023-10-08T10:20:47;10.00;10.00;4.75
65360;PMS5003;51958;55.018;73.536;2023-10-08T10:23:51;10.00;8.50;5.25
65360;PMS5003;51958;55.018;73.536;2023-10-08T10:27:10;10.00;10.00;5.00
65360;PMS5003;51958;55.018;73.536;2023-10-08T10:30:11;14.33;10.67;6.00
65360;PMS5003;51958;55.018;73.536;2023-10-08T10:33:17;19.50;17.50;8.00
65360;PMS5003;51958;55.018;73.536;2023-10-08T10:36:18;20.25;19.00;7.00
65360;PMS5003;51958;55.018;73.536;2023-10-08T10:39:19;27.00;23.50;13.00
65360;PMS5003;51958;55.018;73.536;2023-10-08T10:42:27;25.00;22.33;13.67
65360;PMS5003;51958;55.018;73.536;2023-10-08T10:45:30;19.00;18.50;9.00
65360;PMS5003;51958;55.018;73.536;2023-10-08T10:48:37;17.75;17.00;7.00
65360;PMS5003;51958;55.018;73.536;2023-10-08T10:51:39;19.25;17.25;7.00
65360;PMS5003;51958;55.018;73.536;2023-10-08T10:54:42;17.00;16.00;6.00
65360;PMS5003;51958;55.018;73.536;2023-10-08T10:57:55;14.00;13.00;5.00
65360;PMS5003;51958;55.018;73.536;2023-10-08T11:01:11;17.50;16.00;7.00
65360;PMS5003;51958;55.018;73.536;2023-10-08T11:04:24;22.50;18.00;9.00
65360;PMS5003;51958;55.018;73.536;2023-10-08T11:07:31;19.00;17.00;8.00
65360;PMS5003;51958;55.018;73.536;2023-10-08T11:10:35;18.00;16.00;6.25
65360;PMS5003;51958;55.018;73.536;2023-10-08T11:13:39;18.50;17.00;8.00
65360;PMS5003;51958;55.018;73.536;2023-10-08T11:16:40;17.00;15.00;5.00
65360;PMS5003;51958;55.018;73.536;2023-10-08T11:19:44;19.00;16.25;5.75
65360;PMS5003;51958;55.018;73.536;2023-10-08T11:22:47;17.25;14.00;5.00
65360;PMS5003;51958;55.018;73.536;2023-10-08T11:25:52;17.50;14.00;7.00
65360;PMS5003;51958;55.018;73.536;2023-10-08T11:28:53;18.00;16.00;6.75
65360;PMS5003;51958;55.018;73.536;2023-10-08T11:31:55;18.00;16.00;7.50
65360;PMS5003;51958;55.018;73.536;2023-10-08T11:34:56;18.00;16.75;6.00
65360;PMS5003;51958;55.018;73.536;2023-10-08T11:38:00;16.00;14.00;5.00
65360;PMS5003;51958;55.018;73.536;2023-10-08T11:41:16;17.50;12.00;4.25
65360;PMS5003;51958;55.018;73.536;2023-10-08T11:44:23;16.00;12.00;5.25
65360;PMS5003;51958;55.018;73.536;2023-10-08T11:47:31;13.00;12.00;4.00
65360;PMS5003;51958;55.018;73.536;2023-10-08T11:50:38;14.50;11.00;5.00
65360;PMS5003;51958;55.018;73.536;2023-10-08T11:53:41;13.00;9.00;4.00
65360;PMS5003;51958;55.018;73.536;2023-10-08T11:56:42;11.00;9.50;5.00
65360;PMS5003;51958;55.018;73.536;2023-10-08T11:59:43;14.00;10.00;5.00
65360;PMS5003;51958;55.018;73.536;2023-10-08T12:02:45;14.00;10.00;4.00
65360;PMS5003;51958;55.018;73.536;2023-10-08T12:05:47;12.00;9.50;4.00
65360;PMS5003;51958;55.018;73.536;2023-10-08T12:08:48;12.75;9.00;4.00
65360;PMS5003;51958;55.018;73.536;2023-10-08T12:11:55;14.00;9.67;3.00
65360;PMS5003;51958;55.018;73.536;2023-10-08T12:14:58;16.00;12.00;6.00
65360;PMS5003;51958;55.018;73.536;2023-10-08T12:18:00;16.00;13.00;5.00
65360;PMS5003;51958;55.018;73.536;2023-10-08T12:21:16;16.00;14.00;4.00
65360;PMS5003;51958;55.018;73.536;2023-10-08T12:24:18;14.00;11.00;5.50
65360;PMS5003;51958;55.018;73.536;2023-10-08T12:27:20;15.50;10.75;4.00
65360;PMS5003;51958;55.018;73.536;2023-10-08T12:30:22;12.50;9.50;4.50
65360;PMS5003;51958;55.018;73.536;2023-10-08T12:33:31;9.67;8.67;4.67
65360;PMS5003;51958;55.018;73.536;2023-10-08T12:36:46;10.50;10.00;4.25
65360;PMS5003;51958;55.018;73.536;2023-10-08T12:39:48;8.25;8.25;4.75
65360;PMS5003;51958;55.018;73.536;2023-10-08T12:43:12;11.33;10.33;5.33
65360;PMS5003;51958;55.018;73.536;2023-10-08T12:46:21;12.75;9.25;6.00
65360;PMS5003;51958;55.018;73.536;2023-10-08T12:49:26;42.50;34.50;19.00
65360;PMS5003;51958;55.018;73.536;2023-10-08T12:52:28;55.00;42.33;25.00
65360;PMS5003;51958;55.018;73.536;2023-10-08T12:55:29;42.00;33.25;19.75
65360;PMS5003;51958;55.018;73.536;2023-10-08T12:58:32;44.50;35.50;22.50
65360;PMS5003;51958;55.018;73.536;2023-10-08T13:01:39;40.00;33.33;21.67
65360;PMS5003;51958;55.018;73.536;2023-10-08T13:04:41;80.00;66.50;33.50
65360;PMS5003;51958;55.018;73.536;2023-10-08T13:07:46;53.00;41.00;23.75
65360;PMS5003;51958;55.018;73.536;2023-10-08T13:10:47;57.25;43.50;26.50
65360;PMS5003;51958;55.018;73.536;2023-10-08T13:13:52;60.00;45.00;27.00
65360;PMS5003;51958;55.018;73.536;2023-10-08T13:16:53;62.75;48.75;29.75
65360;PMS5003;51958;55.018;73.536;2023-10-08T13:19:54;122.00;100.33;53.00
65360;PMS5003;51958;55.018;73.536;2023-10-08T13:22:55;81.67;69.00;37.00
65360;PMS5003;51958;55.018;73.536;2023-10-08T13:25:56;45.67;36.00;21.33
65360;PMS5003;51958;55.018;73.536;2023-10-08T13:29:04;26.00;24.25;17.00
65360;PMS5003;51958;55.018;73.536;2023-10-08T13:32:10;19.33;17.67;8.67
65360;PMS5003;51958;55.018;73.536;2023-10-08T13:35:29;12.25;10.75;4.00
65360;PMS5003;51958;55.018;73.536;2023-10-08T13:38:30;12.00;9.00;5.00
65360;PMS5003;51958;55.018;73.536;2023-10-08T13:41:31;29.75;25.25;16.00
65360;PMS5003;51958;55.018;73.536;2023-10-08T13:44:36;25.67;22.67;14.67
65360;PMS5003;51958;55.018;73.536;2023-10-08T13:47:51;18.00;17.00;7.50
65360;PMS5003;51958;55.018;73.536;2023-10-08T13:50:52;16.25;13.25;5.00
65360;PMS5003;51958;55.018;73.536;2023-10-08T13:53:53;16.00;12.00;5.67
65360;PMS5003;51958;55.018;73.536;2023-10-08T13:57:01;13.00;8.00;4.00
65360;PMS5003;51958;55.018;73.536;2023-10-08T14:00:02;13.00;10.75;5.00
65360;PMS5003;51958;55.018;73.536;2023-10-08T14:03:13;12.00;9.00;4.00
65360;PMS5003;51958;55.018;73.536;2023-10-08T14:06:22;8.00;8.00;5.00
65360;PMS5003;51958;55.018;73.536;2023-10-08T14:09:25;9.00;9.00;4.00
65360;PMS5003;51958;55.018;73.536;2023-10-08T14:12:32;12.33;12.00;5.00
65360;PMS5003;51958;55.018;73.536;2023-10-08T14:15:35;11.00;8.75;5.00
65360;PMS5003;51958;55.018;73.536;2023-10-08T14:18:43;8.00;7.00;3.00
65360;PMS5003;51958;55.018;73.536;2023-10-08T14:21:51;7.75;7.75;4.00
65360;PMS5003;51958;55.018;73.536;2023-10-08T14:25:14;8.00;7.00;4.00
65360;PMS5003;51958;55.018;73.536;2023-10-08T14:28:18;9.00;7.00;4.00
65360;PMS5003;51958;55.018;73.536;2023-10-08T14:31:22;7.50;7.00;3.00
65360;PMS5003;51958;55.018;73.536;2023-10-08T14:34:24;5.67;5.67;2.00
65360;PMS5003;51958;55.018;73.536;2023-10-08T14:37:44;10.50;9.00;4.75
65360;PMS5003;51958;55.018;73.536;2023-10-08T14:41:06;9.50;8.75;4.00
65360;PMS5003;51958;55.018;73.536;2023-10-08T14:44:25;11.67;11.00;4.00
65360;PMS5003;51958;55.018;73.536;2023-10-08T14:47:27;9.00;8.00;4.00
65360;PMS5003;51958;55.018;73.536;2023-10-08T14:50:29;8.75;7.00;4.00
65360;PMS5003;51958;55.018;73.536;2023-10-08T14:53:35;8.00;6.00;3.00
65360;PMS5003;51958;55.018;73.536;2023-10-08T14:56:39;7.25;7.00;2.00
65360;PMS5003;51958;55.018;73.536;2023-10-08T14:59:41;6.75;6.75;2.00
65360;PMS5003;51958;55.018;73.536;2023-10-08T15:02:56;7.00;7.00;3.50
65360;PMS5003;51958;55.018;73.536;2023-10-08T15:06:00;8.75;8.75;3.00
65360;PMS5003;51958;55.018;73.536;2023-10-08T15:09:07;8.25;7.00;3.00
65360;PMS5003;51958;55.018;73.536;2023-10-08T15:12:10;7.00;7.00;2.00
65360;PMS5003;51958;55.018;73.536;2023-10-08T15:15:13;7.00;7.00;2.00
65360;PMS5003;51958;55.018;73.536;2023-10-08T15:18:14;8.00;7.00;3.00
65360;PMS5003;51958;55.018;73.536;2023-10-08T15:21:17;6.00;5.75;2.00
65360;PMS5003;51958;55.018;73.536;2023-10-08T15:24:18;7.00;6.00;2.00
65360;PMS5003;51958;55.018;73.536;2023-10-08T15:27:23;6.00;6.00;2.00
65360;PMS5003;51958;55.018;73.536;2023-10-08T15:30:24;7.25;5.50;4.00
65360;PMS5003;51958;55.018;73.536;2023-10-08T15:33:38;6.00;5.00;2.00
65360;PMS5003;51958;55.018;73.536;2023-10-08T15:36:39;7.00;6.25;2.25
65360;PMS5003;51958;55.018;73.536;2023-10-08T15:39:41;6.00;5.75;1.00
65360;PMS5003;51958;55.018;73.536;2023-10-08T15:42:42;7.00;7.00;1.00
65360;PMS5003;51958;55.018;73.536;2023-10-08T15:45:44;7.00;6.00;3.00
65360;PMS5003;51958;55.018;73.536;2023-10-08T15:48:45;5.75;5.00;2.00
65360;PMS5003;51958;55.018;73.536;2023-10-08T15:51:47;8.00;6.00;3.00
65360;PMS5003;51958;55.018;73.536;2023-10-08T15:54:48;5.67;5.00;2.00
65360;PMS5003;51958;55.018;73.536;2023-10-08T15:57:50;5.00;5.00;2.00
65360;PMS5003;51958;55.018;73.536;2023-10-08T16:00:56;5.75;5.75;3.00
65360;PMS5003;51958;55.018;73.536;2023-10-08T16:03:57;6.00;6.00;2.00
65360;PMS5003;51958;55.018;73.536;2023-10-08T16:06:59;6.50;6.50;2.50
65360;PMS5003;51958;55.018;73.536;2023-10-08T16:10:00;7.00;6.00;3.00
65360;PMS5003;51958;55.018;73.536;2023-10-08T16:13:01;3.00;3.00;2.00
65360;PMS5003;51958;55.018;73.536;2023-10-08T16:16:02;4.00;4.00;2.00
65360;PMS5003;51958;55.018;73.536;2023-10-08T16:19:03;5.25;5.00;2.00
65360;PMS5003;51958;55.018;73.536;2023-10-08T16:22:07;5.00;4.00;1.00
65360;PMS5003;51958;55.018;73.536;2023-10-08T16:25:10;6.00;5.00;1.00
65360;PMS5003;51958;55.018;73.536;2023-10-08T16:28:15;6.00;6.00;3.00
65360;PMS5003;51958;55.018;73.536;2023-10-08T16:31:18;4.50;4.50;2.00
65360;PMS5003;51958;55.018;73.536;2023-10-08T16:34:21;6.50;5.50;1.00
65360;PMS5003;51958;55.018;73.536;2023-10-08T16:37:22;6.00;4.00;2.00
65360;PMS5003;51958;55.018;73.536;2023-10-08T16:40:23;4.00;4.00;2.00
65360;PMS5003;51958;55.018;73.536;2023-10-08T16:43:24;2.00;2.00;0.00
65360;PMS5003;51958;55.018;73.536;2023-10-08T16:46:25;2.00;1.00;0.00
65360;PMS5003;51958;55.018;73.536;2023-10-08T16:49:26;3.00;2.25;0.00
65360;PMS5003;51958;55.018;73.536;2023-10-08T16:52:29;1.00;1.00;0.00
65360;PMS5003;51958;55.018;73.536;2023-10-08T16:55:30;2.33;2.00;0.00
65360;PMS5003;51958;55.018;73.536;2023-10-08T16:58:32;1.25;0.00;0.00
65360;PMS5003;51958;55.018;73.536;2023-10-08T17:01:33;0.00;0.00;0.00
65360;PMS5003;51958;55.018;73.536;2023-10-08T17:04:36;0.00;0.00;0.00
65360;PMS5003;51958;55.018;73.536;2023-10-08T17:07:44;1.00;0.00;0.00
65360;PMS5003;51958;55.018;73.536;2023-10-08T17:10:45;0.00;0.00;0.00
65360;PMS5003;51958;55.018;73.536;2023-10-08T17:13:48;1.00;0.00;0.00
65360;PMS5003;51958;55.018;73.536;2023-10-08T17:16:50;0.00;0.00;0.00
65360;PMS5003;51958;55.018;73.536;2023-10-08T17:19:51;0.00;0.00;0.00
65360;PMS5003;51958;55.018;73.536;2023-10-08T17:22:52;0.00;0.00;0.00
65360;PMS5003;51958;55.018;73.536;2023-10-08T17:25:53;0.00;0.00;0.00